Time;durP1;ratioP1;P1;durP2;ratioP2;P2;SDS_P1;SDS_P2;PMS_P1;PMS_P2;Temp;Humidity;BMP_temperature;BMP_pressure;BME280_temperature;BME280_humidity;BME280_pressure;Samples;Min_cycle;Max_cycle;Signal;HPM_P1;HPM_P2
2021/09/28 00:01:19;;;;;;;11.38;3.10;;;14.50;99.90;;;;;;5056082;28;20461;-85
2021/09/28 00:03:44;;;;;;;14.73;3.60;;;14.50;99.90;;;;;;5073873;28;20363;-86
2021/09/28 00:06:10;;;;;;;10.48;3.03;;;14.50;99.90;;;;;;5055947;28;20062;-86
2021/09/28 00:08:37;;;;;;;10.15;2.83;;;14.50;99.90;;;;;;5056011;28;20073;-85
2021/09/28 00:11:03;;;;;;;9.82;3.05;;;14.50;99.90;;;;;;5055311;28;20489;-86
2021/09/28 00:13:30;;;;;;;11.75;3.10;;;14.50;99.90;;;;;;5073758;28;20025;-86
2021/09/28 00:15:55;;;;;;;12.70;3.50;;;14.40;99.90;;;;;;5073711;28;20033;-86
2021/09/28 00:18:22;;;;;;;10.80;3.08;;;14.40;99.90;;;;;;5055753;28;20082;-86
2021/09/28 00:20:48;;;;;;;11.00;3.20;;;14.40;99.90;;;;;;5073072;28;20048;-87
2021/09/28 00:23:14;;;;;;;9.30;3.20;;;14.40;99.90;;;;;;5055550;28;20064;-85
2021/09/28 00:25:41;;;;;;;10.63;3.17;;;14.40;99.90;;;;;;5055595;28;20024;-86
2021/09/28 00:28:06;;;;;;;9.85;3.60;;;14.40;99.90;;;;;;5055448;28;20028;-86
2021/09/28 00:30:32;;;;;;;11.50;3.58;;;14.30;99.90;;;;;;5072701;28;20466;-86
2021/09/28 00:32:57;;;;;;;11.48;3.65;;;14.20;99.90;;;;;;5073181;28;20036;-86
2021/09/28 00:35:23;;;;;;;8.35;2.53;;;14.30;99.90;;;;;;5055178;28;20040;-86
2021/09/28 00:37:49;;;;;;;7.93;3.22;;;14.20;99.90;;;;;;5055320;28;20393;-86
2021/09/28 00:40:14;;;;;;;11.57;4.00;;;14.20;99.90;;;;;;5054672;28;20028;-86
2021/09/28 00:42:40;;;;;;;9.75;3.00;;;14.10;99.90;;;;;;5055226;28;20397;-85
2021/09/28 00:45:08;;;;;;;13.13;3.67;;;14.20;99.90;;;;;;5073460;28;20025;-86
2021/09/28 00:47:34;;;;;;;9.68;3.05;;;14.10;99.90;;;;;;5055093;28;20114;-85
2021/09/28 00:50:00;;;;;;;9.85;3.00;;;14.10;99.90;;;;;;5053643;28;20031;-86
2021/09/28 00:52:26;;;;;;;10.93;3.25;;;14.10;99.90;;;;;;5072750;28;20028;-86
2021/09/28 00:54:52;;;;;;;10.80;3.22;;;14.10;99.90;;;;;;5054964;28;20035;-86
2021/09/28 00:57:18;;;;;;;12.15;3.22;;;14.10;99.90;;;;;;5054790;28;20098;-85
2021/09/28 00:59:45;;;;;;;11.60;2.75;;;14.10;99.90;;;;;;5054265;28;20072;-86
2021/09/28 01:02:12;;;;;;;9.88;2.67;;;14.10;99.90;;;;;;5072569;28;20025;-86
2021/09/28 01:04:38;;;;;;;8.70;2.60;;;14.10;99.90;;;;;;5054865;28;20021;-86
2021/09/28 01:07:05;;;;;;;12.55;2.97;;;14.10;99.90;;;;;;5054712;28;20067;-86
2021/09/28 01:09:32;;;;;;;7.15;2.90;;;14.20;99.90;;;;;;5054105;28;20029;-86
2021/09/28 01:11:58;;;;;;;8.75;3.03;;;14.20;99.90;;;;;;5054634;28;20034;-85
2021/09/28 01:14:24;;;;;;;12.85;3.53;;;14.20;99.90;;;;;;5054654;28;20029;-86
2021/09/28 01:16:50;;;;;;;11.85;3.55;;;14.20;99.90;;;;;;5054506;28;20028;-86
2021/09/28 01:19:16;;;;;;;9.45;2.97;;;14.30;99.90;;;;;;5053891;28;20032;-86
2021/09/28 01:21:42;;;;;;;9.18;2.80;;;14.30;99.90;;;;;;5054424;28;20029;-85
2021/09/28 01:24:08;;;;;;;8.75;2.50;;;14.20;99.90;;;;;;5072464;28;20020;-86
2021/09/28 01:26:34;;;;;;;12.38;2.67;;;14.20;99.90;;;;;;5072422;28;20064;-86
2021/09/28 01:29:02;;;;;;;10.98;3.00;;;14.20;99.90;;;;;;5053803;28;20097;-86
2021/09/28 01:31:28;;;;;;;8.48;2.20;;;14.30;99.90;;;;;;5053952;28;20032;-86
2021/09/28 01:33:54;;;;;;;7.43;2.50;;;14.20;99.90;;;;;;5072464;28;20028;-85
2021/09/28 01:36:20;;;;;;;7.57;2.70;;;14.30;99.90;;;;;;5072112;28;20032;-86
2021/09/28 01:38:46;;;;;;;10.45;2.60;;;14.20;99.90;;;;;;5054139;28;20527;-86
2021/09/28 01:41:12;;;;;;;7.72;2.20;;;14.30;99.90;;;;;;5053758;28;20111;-86
2021/09/28 01:43:38;;;;;;;5.57;2.42;;;14.20;99.90;;;;;;5054211;28;20021;-86
2021/09/28 01:46:04;;;;;;;7.72;2.67;;;14.30;99.90;;;;;;5054275;28;20115;-85
2021/09/28 01:48:51;;;;;;;8.38;2.85;;;14.20;99.90;;;;;;5054299;28;20032;-86
2021/09/28 01:51:17;;;;;;;8.15;2.50;;;14.20;99.90;;;;;;5053990;28;20031;-85
2021/09/28 01:53:42;;;;;;;6.28;2.75;;;14.10;99.90;;;;;;5071981;28;20466;-86
2021/09/28 01:56:20;;;;;;;9.82;2.80;;;14.00;99.90;;;;;;5053903;28;20066;-86
2021/09/28 01:58:46;;;;;;;8.40;2.50;;;13.90;99.90;;;;;;5071820;28;20044;-86
2021/09/28 02:01:11;;;;;;;10.32;2.75;;;13.90;99.90;;;;;;5053468;28;20075;-85
2021/09/28 02:03:37;;;;;;;7.15;2.72;;;13.90;99.90;;;;;;5053928;28;20029;-86
2021/09/28 02:06:03;;;;;;;6.97;2.70;;;13.90;99.90;;;;;;5054023;28;20520;-86
2021/09/28 02:08:28;;;;;;;7.70;2.85;;;13.80;99.90;;;;;;5071895;28;20036;-86
2021/09/28 02:10:54;;;;;;;11.88;3.00;;;13.80;99.90;;;;;;5053473;28;20024;-87
2021/09/28 02:13:19;;;;;;;10.00;2.80;;;13.80;99.90;;;;;;5071920;28;20029;-86
2021/09/28 02:15:45;;;;;;;11.25;3.00;;;13.80;99.90;;;;;;5053835;28;20512;-86
2021/09/28 02:18:11;;;;;;;11.70;2.70;;;13.80;99.90;;;;;;5071787;28;20083;-86
2021/09/28 02:20:37;;;;;;;8.55;2.60;;;13.90;99.90;;;;;;5053160;28;20117;-86
2021/09/28 02:23:02;;;;;;;8.60;2.50;;;13.90;99.90;;;;;;5071730;28;20482;-86
2021/09/28 02:25:28;;;;;;;9.00;2.40;;;13.90;99.90;;;;;;5053688;28;20028;-86
2021/09/28 02:27:54;;;;;;;8.77;2.55;;;13.90;99.90;;;;;;5053655;28;20056;-86
2021/09/28 02:30:19;;;;;;;9.75;3.17;;;13.90;99.90;;;;;;5071071;28;20389;-86
2021/09/28 02:32:45;;;;;;;7.00;2.10;;;13.90;99.90;;;;;;5053715;28;20507;-86
2021/09/28 02:35:11;;;;;;;7.88;2.80;;;14.00;99.90;;;;;;5078342;22;20034;-85
2021/09/28 02:37:37;;;;;;;17.48;3.13;;;14.00;99.90;;;;;;5051405;28;20036;-86
2021/09/28 02:40:04;;;;;;;7.43;2.70;;;14.00;99.90;;;;;;5053254;28;20054;-85
2021/09/28 02:42:30;;;;;;;9.18;2.95;;;14.00;99.90;;;;;;5053818;28;20488;-85
2021/09/28 02:44:56;;;;;;;8.40;2.55;;;14.00;99.90;;;;;;5071373;28;20055;-85
2021/09/28 02:47:27;;;;;;;12.85;2.75;;;14.00;99.90;;;;;;5070589;28;20415;-85
2021/09/28 02:49:52;;;;;;;8.88;2.70;;;14.00;99.90;;;;;;5052944;28;20020;-85
2021/09/28 02:52:18;;;;;;;8.13;2.47;;;13.90;99.90;;;;;;5053390;28;20098;-85
2021/09/28 02:54:44;;;;;;;11.13;2.47;;;14.00;99.90;;;;;;5053532;28;20020;-85
2021/09/28 02:57:09;;;;;;;7.75;2.17;;;14.00;99.90;;;;;;5071436;28;20518;-84
2021/09/28 02:59:35;;;;;;;9.25;2.15;;;14.00;99.90;;;;;;5052854;28;20020;-85
2021/09/28 03:02:02;;;;;;;9.90;2.60;;;14.00;99.90;;;;;;5053274;28;20024;-85
2021/09/28 03:04:28;;;;;;;8.02;2.30;;;14.00;99.90;;;;;;5071199;28;20100;-85
2021/09/28 03:06:53;;;;;;;10.88;2.70;;;14.00;99.90;;;;;;5071296;28;20487;-85
2021/09/28 03:09:19;;;;;;;13.73;2.88;;;14.00;99.90;;;;;;5070772;28;20124;-85
2021/09/28 03:11:44;;;;;;;8.13;2.58;;;14.00;99.90;;;;;;5054020;28;20024;-85
2021/09/28 03:14:10;;;;;;;12.65;2.65;;;13.90;99.90;;;;;;5056925;28;20036;-85
2021/09/28 03:16:35;;;;;;;12.93;2.72;;;13.90;99.90;;;;;;5056647;28;20032;-85
2021/09/28 03:19:01;;;;;;;13.00;2.90;;;13.90;99.90;;;;;;5056108;28;20032;-85
2021/09/28 03:21:27;;;;;;;10.10;2.63;;;13.90;99.90;;;;;;5056728;28;20029;-85
2021/09/28 03:23:53;;;;;;;9.90;2.95;;;13.90;99.90;;;;;;5074748;28;20017;-85
2021/09/28 03:26:18;;;;;;;11.73;3.38;;;13.90;99.90;;;;;;5074567;28;20078;-85
2021/09/28 03:28:44;;;;;;;8.23;2.67;;;13.90;99.90;;;;;;5056654;28;20029;-85
2021/09/28 03:31:10;;;;;;;11.30;2.30;;;13.90;99.90;;;;;;5056002;28;20033;-85
2021/09/28 03:33:35;;;;;;;9.70;2.75;;;13.90;99.90;;;;;;5056515;28;20504;-85
2021/09/28 03:36:01;;;;;;;8.35;2.70;;;13.90;99.90;;;;;;5056377;28;20469;-85
2021/09/28 03:38:26;;;;;;;11.68;2.80;;;13.90;99.90;;;;;;5056341;28;20548;-85
2021/09/28 03:40:52;;;;;;;8.85;2.45;;;13.80;99.90;;;;;;5055814;28;20017;-85
2021/09/28 03:43:18;;;;;;;10.05;2.42;;;13.90;99.90;;;;;;5056258;28;20023;-85
2021/09/28 03:45:43;;;;;;;7.10;2.38;;;13.80;99.90;;;;;;5074491;28;20032;-85
2021/09/28 03:48:09;;;;;;;11.35;2.58;;;13.80;99.90;;;;;;5056356;28;20031;-85
2021/09/28 03:50:35;;;;;;;10.45;2.40;;;13.90;99.90;;;;;;5055812;28;20031;-85
2021/09/28 03:53:00;;;;;;;12.45;2.85;;;13.80;99.90;;;;;;5074653;28;20166;-85
2021/09/28 03:55:26;;;;;;;12.35;2.80;;;13.80;99.90;;;;;;5056400;28;20055;-85
2021/09/28 03:57:52;;;;;;;7.90;2.50;;;13.90;99.90;;;;;;5056563;28;20119;-85
2021/09/28 04:00:21;;;;;;;12.15;2.53;;;13.80;99.90;;;;;;5055567;28;20031;-85
2021/09/28 04:02:47;;;;;;;12.23;2.78;;;13.80;99.90;;;;;;5056244;28;20154;-85
2021/09/28 04:05:13;;;;;;;12.68;2.83;;;13.80;99.90;;;;;;5056224;28;20029;-85
2021/09/28 04:07:40;;;;;;;8.20;2.38;;;13.70;99.90;;;;;;5074193;28;20017;-86
2021/09/28 04:10:07;;;;;;;11.13;2.92;;;13.80;99.90;;;;;;5055695;28;20032;-85
2021/09/28 04:12:33;;;;;;;11.82;2.97;;;13.80;99.90;;;;;;5056023;28;20447;-86
2021/09/28 04:15:00;;;;;;;10.52;2.72;;;13.80;99.90;;;;;;5073988;28;20032;-86
2021/09/28 04:17:26;;;;;;;8.98;2.70;;;13.80;99.90;;;;;;5074102;28;20043;-85
2021/09/28 04:19:52;;;;;;;18.60;3.35;;;13.70;99.90;;;;;;5055436;28;20032;-85
2021/09/28 04:22:19;;;;;;;8.82;2.50;;;13.80;99.90;;;;;;5057141;28;20025;-86
2021/09/28 04:24:45;;;;;;;8.27;2.47;;;13.80;99.90;;;;;;5059318;28;20075;-85
2021/09/28 04:27:12;;;;;;;10.70;2.65;;;13.70;99.90;;;;;;5059955;28;20045;-85
2021/09/28 04:29:39;;;;;;;13.35;2.97;;;13.70;99.90;;;;;;5072449;28;20435;-85
2021/09/28 04:32:05;;;;;;;11.18;2.95;;;13.60;99.90;;;;;;5072620;28;20021;-85
2021/09/28 04:34:31;;;;;;;9.10;3.17;;;13.60;99.90;;;;;;5071391;28;20032;-85
2021/09/28 04:36:57;;;;;;;17.65;3.45;;;13.60;99.90;;;;;;5073247;28;20063;-85
2021/09/28 04:39:23;;;;;;;10.13;2.78;;;13.50;99.90;;;;;;5068597;28;20029;-85
2021/09/28 04:41:51;;;;;;;11.85;2.75;;;13.50;99.90;;;;;;5068761;28;20036;-85
2021/09/28 04:44:17;;;;;;;8.98;3.35;;;13.50;99.90;;;;;;5066957;28;20107;-85
2021/09/28 04:46:43;;;;;;;11.23;3.20;;;13.40;99.90;;;;;;5065441;28;20496;-85
2021/09/28 04:49:09;;;;;;;20.38;7.85;;;13.30;99.90;;;;;;5083850;28;20032;-85
2021/09/28 04:51:35;;;;;;;14.68;4.30;;;13.40;99.90;;;;;;5065458;28;20035;-85
2021/09/28 04:54:01;;;;;;;12.93;4.00;;;13.30;99.90;;;;;;5074617;28;20062;-85
2021/09/28 04:56:27;;;;;;;11.25;3.88;;;13.30;99.90;;;;;;5058002;28;20026;-86
2021/09/28 04:58:53;;;;;;;14.02;4.22;;;13.30;99.90;;;;;;5059861;28;20031;-87
2021/09/28 05:01:19;;;;;;;15.82;3.92;;;13.20;99.90;;;;;;5057549;28;20032;-86
2021/09/28 05:03:44;;;;;;;17.35;5.00;;;13.20;99.90;;;;;;5055736;28;20381;-86
2021/09/28 05:06:12;;;;;;;16.40;5.38;;;13.20;99.90;;;;;;5055252;28;20062;-85
2021/09/28 05:08:39;;;;;;;24.70;7.75;;;13.20;99.90;;;;;;5055484;28;20025;-85
2021/09/28 05:11:05;;;;;;;21.65;7.82;;;13.10;99.90;;;;;;5054010;28;20051;-85
2021/09/28 05:13:31;;;;;;;15.55;5.93;;;13.10;99.90;;;;;;5075769;28;20031;-85
2021/09/28 05:15:57;;;;;;;14.15;4.28;;;13.10;99.90;;;;;;5055151;28;20028;-85
2021/09/28 05:18:38;;;;;;;16.75;4.47;;;13.10;99.90;;;;;;5072536;28;20473;-84
2021/09/28 05:21:13;;;;;;;11.38;3.70;;;13.00;99.90;;;;;;5054114;28;20673;-85
2021/09/28 05:23:46;;;;;;;15.90;4.28;;;13.10;99.90;;;;;;5054615;28;20493;-84
2021/09/28 05:26:15;;;;;;;10.85;4.00;;;13.10;99.90;;;;;;5054609;28;20048;-85
2021/09/28 05:28:41;;;;;;;15.43;4.25;;;13.10;99.90;;;;;;5072607;28;20066;-84
2021/09/28 05:31:07;;;;;;;13.55;4.30;;;13.10;99.90;;;;;;5053640;28;20032;-84
2021/09/28 05:33:33;;;;;;;11.73;3.90;;;13.10;99.90;;;;;;5054420;28;20119;-84
2021/09/28 05:35:59;;;;;;;15.80;4.00;;;13.20;99.90;;;;;;5071742;28;20124;-85
2021/09/28 05:38:25;;;;;;;10.05;3.80;;;13.10;99.90;;;;;;5072365;28;20428;-85
2021/09/28 05:40:51;;;;;;;11.63;3.75;;;13.30;99.90;;;;;;5071709;28;20051;-85
2021/09/28 05:43:16;;;;;;;14.50;4.00;;;13.30;99.90;;;;;;5072117;28;20024;-85
2021/09/28 05:45:42;;;;;;;10.27;3.45;;;13.30;99.90;;;;;;5054344;28;20393;-85
2021/09/28 05:48:08;;;;;;;10.98;3.17;;;13.30;99.90;;;;;;5072161;28;20024;-86
2021/09/28 05:50:35;;;;;;;17.65;4.25;;;13.30;99.90;;;;;;5053568;28;20035;-85
2021/09/28 05:53:07;;;;;;;15.77;3.30;;;13.30;99.90;;;;;;5053971;28;20043;-85
2021/09/28 05:56:09;;;;;;;14.88;3.40;;;13.30;99.90;;;;;;5071801;28;20032;-85
2021/09/28 05:58:39;;;;;;;12.90;4.28;;;13.30;99.90;;;;;;5072544;28;20033;-85
2021/09/28 06:01:08;;;;;;;12.00;3.15;;;13.30;99.90;;;;;;5053124;28;20039;-85
2021/09/28 06:03:37;;;;;;;11.65;4.05;;;13.30;99.90;;;;;;5053659;28;20032;-85
2021/09/28 06:06:03;;;;;;;15.48;3.53;;;13.30;99.90;;;;;;5053737;28;20090;-85
2021/09/28 06:08:29;;;;;;;11.60;3.92;;;13.20;99.90;;;;;;5053897;28;20048;-85
2021/09/28 06:10:55;;;;;;;11.10;3.75;;;13.20;99.90;;;;;;5071351;28;20017;-85
2021/09/28 06:13:20;;;;;;;13.45;3.58;;;13.10;99.90;;;;;;5071750;28;20099;-85
2021/09/28 06:15:46;;;;;;;13.63;3.15;;;13.10;99.90;;;;;;5053938;28;20449;-85
2021/09/28 06:18:12;;;;;;;13.80;2.90;;;13.10;99.90;;;;;;5071796;28;20423;-84
2021/09/28 06:20:37;;;;;;;16.23;3.25;;;13.10;99.90;;;;;;5053193;28;20028;-85
2021/09/28 06:23:03;;;;;;;7.07;3.17;;;13.10;99.90;;;;;;5072003;28;20376;-84
2021/09/28 06:25:29;;;;;;;12.40;4.00;;;13.10;99.90;;;;;;5071551;28;20017;-85
2021/09/28 06:27:54;;;;;;;10.80;3.45;;;13.20;99.90;;;;;;5071609;28;20074;-85
2021/09/28 06:30:20;;;;;;;15.18;3.58;;;13.20;99.90;;;;;;5053136;28;20044;-85
2021/09/28 06:32:46;;;;;;;11.75;3.70;;;13.20;99.90;;;;;;5053870;28;20537;-85
2021/09/28 06:35:11;;;;;;;11.88;3.20;;;13.20;99.90;;;;;;5053496;28;20431;-85
2021/09/28 06:37:37;;;;;;;8.43;2.83;;;13.20;99.90;;;;;;5053976;28;20522;-84
2021/09/28 06:40:04;;;;;;;10.73;3.70;;;13.20;99.90;;;;;;5071089;28;20362;-85
2021/09/28 06:42:29;;;;;;;12.57;3.50;;;13.20;99.90;;;;;;5053437;28;20111;-85
2021/09/28 06:44:55;;;;;;;11.32;3.40;;;13.20;99.90;;;;;;5053565;28;20111;-85
2021/09/28 06:47:21;;;;;;;9.65;2.70;;;13.20;99.90;;;;;;5055027;28;20028;-85
2021/09/28 06:49:46;;;;;;;12.45;3.40;;;13.20;99.90;;;;;;5056721;28;20032;-85
2021/09/28 06:52:12;;;;;;;8.80;3.20;;;13.30;99.90;;;;;;5057201;28;20032;-85
2021/09/28 06:54:38;;;;;;;11.27;3.03;;;13.30;99.90;;;;;;5057190;28;20115;-85
2021/09/28 06:57:04;;;;;;;10.63;3.67;;;13.30;99.90;;;;;;5057000;28;20043;-85
2021/09/28 06:59:30;;;;;;;12.80;3.83;;;13.30;99.90;;;;;;5074726;28;20036;-85
2021/09/28 07:01:55;;;;;;;13.65;3.67;;;13.30;99.90;;;;;;5056984;28;20029;-85
2021/09/28 07:04:21;;;;;;;10.48;3.30;;;13.40;99.90;;;;;;5057018;28;20032;-85
2021/09/28 07:06:47;;;;;;;10.40;3.20;;;13.40;99.90;;;;;;5056908;28;20021;-85
2021/09/28 07:09:13;;;;;;;11.35;3.38;;;13.50;99.90;;;;;;5056334;28;20039;-85
2021/09/28 07:11:38;;;;;;;12.05;3.25;;;13.50;99.90;;;;;;5056893;28;20028;-85
2021/09/28 07:14:04;;;;;;;12.57;4.15;;;13.50;99.90;;;;;;5074749;28;20051;-85
2021/09/28 07:16:30;;;;;;;17.60;3.80;;;13.50;99.90;;;;;;5056806;28;20056;-85
2021/09/28 07:18:55;;;;;;;9.32;3.05;;;13.50;99.90;;;;;;5056246;28;20036;-85
2021/09/28 07:21:21;;;;;;;9.23;3.53;;;13.60;99.90;;;;;;5074725;28;20070;-84
2021/09/28 07:23:47;;;;;;;12.20;4.28;;;13.60;99.90;;;;;;5056726;28;20020;-85
2021/09/28 07:26:12;;;;;;;11.70;3.13;;;13.70;99.90;;;;;;5056392;28;20059;-85
2021/09/28 07:28:39;;;;;;;9.88;3.03;;;13.70;99.90;;;;;;5056653;28;20052;-85
2021/09/28 07:31:06;;;;;;;10.45;3.10;;;13.80;99.90;;;;;;5073964;28;20028;-85
2021/09/28 07:33:32;;;;;;;10.70;2.95;;;13.90;99.90;;;;;;5056641;28;20157;-85
2021/09/28 07:36:00;;;;;;;12.60;2.92;;;13.90;99.90;;;;;;5056484;28;20511;-85
2021/09/28 07:38:28;;;;;;;11.52;3.53;;;14.00;99.90;;;;;;5056465;28;20021;-85
2021/09/28 07:40:54;;;;;;;12.60;3.30;;;14.00;99.90;;;;;;5073711;28;20021;-85
2021/09/28 07:43:20;;;;;;;9.57;3.28;;;14.10;99.90;;;;;;5056418;28;20031;-84
2021/09/28 07:45:46;;;;;;;10.45;3.47;;;14.10;99.90;;;;;;5074139;28;20021;-85
2021/09/28 07:48:13;;;;;;;8.13;2.80;;;14.20;99.90;;;;;;5056371;28;20020;-84
2021/09/28 07:50:38;;;;;;;11.77;3.47;;;14.10;99.90;;;;;;5056067;28;20024;-85
2021/09/28 07:53:06;;;;;;;11.50;3.42;;;14.20;99.90;;;;;;5074320;28;20024;-84
2021/09/28 07:55:32;;;;;;;13.07;3.45;;;14.30;99.90;;;;;;5056286;28;20028;-85
2021/09/28 07:57:58;;;;;;;14.05;3.72;;;14.40;99.90;;;;;;5056257;28;20025;-84
2021/09/28 08:00:24;;;;;;;16.58;3.67;;;14.40;99.90;;;;;;5055855;28;20028;-85
2021/09/28 08:02:50;;;;;;;9.77;2.65;;;14.40;99.90;;;;;;5057296;28;20109;-85
2021/09/28 08:05:15;;;;;;;8.23;2.95;;;14.50;99.90;;;;;;5059390;28;20044;-85
2021/09/28 08:07:41;;;;;;;10.32;3.38;;;14.50;99.90;;;;;;5061469;28;20017;-85
2021/09/28 08:10:10;;;;;;;13.27;3.13;;;14.50;99.90;;;;;;5059921;28;20033;-85
2021/09/28 08:12:36;;;;;;;11.95;3.03;;;14.50;99.90;;;;;;5060143;28;20492;-85
2021/09/28 08:15:02;;;;;;;11.77;3.08;;;14.60;99.90;;;;;;5078422;28;20036;-85
2021/09/28 08:17:27;;;;;;;8.10;2.75;;;14.60;99.90;;;;;;5056055;28;20490;-85
2021/09/28 08:19:54;;;;;;;10.68;2.58;;;14.60;99.90;;;;;;5055272;28;20028;-85
2021/09/28 08:22:20;;;;;;;9.85;3.08;;;14.60;99.90;;;;;;5073545;28;20024;-85
2021/09/28 08:24:48;;;;;;;8.40;2.35;;;14.70;99.90;;;;;;5073550;28;20123;-85
2021/09/28 08:30:02;;;;;;;10.23;2.67;;;14.70;99.90;;;;;;5073097;28;20039;-85
2021/09/28 08:32:28;;;;;;;12.52;3.03;;;14.70;99.90;;;;;;5055858;28;20020;-85
2021/09/28 08:34:53;;;;;;;10.25;2.92;;;14.80;99.90;;;;;;5073275;28;20081;-85
2021/09/28 08:37:19;;;;;;;15.02;3.83;;;14.80;99.90;;;;;;5090764;23;20041;-86
2021/09/28 08:39:46;;;;;;;11.07;3.13;;;14.80;99.90;;;;;;5058077;28;20024;-86
2021/09/28 08:42:13;;;;;;;10.98;3.22;;;14.80;99.90;;;;;;5058299;28;20106;-85
2021/09/28 08:44:40;;;;;;;12.55;2.78;;;14.80;99.90;;;;;;5058023;28;20021;-85
2021/09/28 08:47:06;;;;;;;14.68;3.53;;;14.90;99.90;;;;;;5058146;28;20037;-85
2021/09/28 08:49:32;;;;;;;9.05;2.40;;;14.90;99.90;;;;;;5057890;28;20024;-86
2021/09/28 08:52:00;;;;;;;7.10;2.20;;;15.00;99.90;;;;;;5058657;28;20025;-86
2021/09/28 08:54:26;;;;;;;13.63;2.30;;;15.00;99.90;;;;;;5076049;28;20037;-85
2021/09/28 08:56:52;;;;;;;6.95;1.58;;;15.00;99.90;;;;;;5058084;28;20035;-85
2021/09/28 08:59:18;;;;;;;9.13;1.75;;;15.00;99.90;;;;;;5057551;28;20024;-86
2021/09/28 09:02:08;;;;;;;10.43;2.20;;;15.10;99.90;;;;;;5057832;28;20048;-86
2021/09/28 09:04:34;;;;;;;7.28;1.95;;;15.10;99.90;;;;;;5076138;28;20024;-85
2021/09/28 09:07:00;;;;;;;10.98;2.40;;;15.10;99.90;;;;;;5057451;28;20078;-85
2021/09/28 09:09:26;;;;;;;10.75;2.00;;;15.10;99.90;;;;;;5074559;28;20056;-86
2021/09/28 09:11:52;;;;;;;10.40;2.33;;;15.10;99.90;;;;;;5057641;28;20040;-86
2021/09/28 09:14:23;;;;;;;9.05;1.95;;;15.10;99.90;;;;;;5058439;28;20033;-85
2021/09/28 09:16:51;;;;;;;7.55;1.92;;;15.20;99.90;;;;;;5057409;28;20043;-85
2021/09/28 09:19:22;;;;;;;8.82;1.83;;;15.30;99.90;;;;;;5056860;28;20024;-86
2021/09/28 09:21:52;;;;;;;8.25;1.67;;;15.30;99.90;;;;;;5075483;28;20524;-86
2021/09/28 09:24:44;;;;;;;9.35;1.63;;;15.30;99.90;;;;;;5057351;28;20024;-85
2021/09/28 09:27:13;;;;;;;9.35;1.90;;;15.40;99.90;;;;;;5060515;28;20037;-86
2021/09/28 09:29:40;;;;;;;8.13;1.27;;;15.40;99.90;;;;;;5056237;28;20027;-86
2021/09/28 09:32:06;;;;;;;9.32;1.80;;;15.40;99.90;;;;;;5056800;28;20075;-86
2021/09/28 09:34:32;;;;;;;8.25;1.75;;;15.50;99.90;;;;;;5056989;28;20103;-87
2021/09/28 09:37:05;;;;;;;11.60;1.98;;;15.50;99.90;;;;;;5075398;28;20032;-86
2021/09/28 09:39:48;;;;;;;9.88;1.88;;;15.60;99.90;;;;;;5057391;28;20024;-85
2021/09/28 09:42:14;;;;;;;8.05;1.75;;;15.60;99.90;;;;;;5057399;28;20012;-85
2021/09/28 09:44:43;;;;;;;12.40;2.63;;;15.70;99.90;;;;;;5057336;28;20480;-86
2021/09/28 09:47:26;;;;;;;7.25;1.75;;;15.70;99.90;;;;;;5074932;28;20020;-85
2021/09/28 09:50:10;;;;;;;7.82;2.30;;;15.80;99.90;;;;;;5074435;28;20021;-86
2021/09/28 09:52:35;;;;;;;9.95;2.08;;;15.80;99.90;;;;;;5056639;28;20024;-86
2021/09/28 09:55:01;;;;;;;11.90;2.92;;;15.90;99.90;;;;;;5057403;28;20032;-86
2021/09/28 09:57:26;;;;;;;10.32;1.92;;;15.90;99.90;;;;;;5058057;28;20024;-86
2021/09/28 09:59:52;;;;;;;9.48;2.13;;;16.00;99.90;;;;;;5074796;28;20420;-86
2021/09/28 10:02:18;;;;;;;8.80;2.05;;;16.00;99.90;;;;;;5057492;28;20017;-86
2021/09/28 10:04:47;;;;;;;9.15;2.20;;;16.00;99.90;;;;;;5057136;28;20021;-85
2021/09/28 10:07:15;;;;;;;9.15;1.85;;;16.10;99.90;;;;;;5076242;28;20170;-86
2021/09/28 10:09:47;;;;;;;13.80;2.60;;;16.20;99.90;;;;;;5057880;28;20032;-85
2021/09/28 10:12:13;;;;;;;10.63;2.08;;;16.20;99.90;;;;;;5057433;28;20082;-86
2021/09/28 10:14:42;;;;;;;7.80;1.80;;;16.20;99.90;;;;;;5057198;28;20025;-86
2021/09/28 10:17:20;;;;;;;8.32;2.00;;;16.20;99.90;;;;;;5057453;28;20028;-86
2021/09/28 10:19:57;;;;;;;8.20;2.03;;;16.20;99.90;;;;;;5056104;28;20029;-87
2021/09/28 10:22:35;;;;;;;5.75;2.05;;;16.20;99.90;;;;;;5060934;28;20021;-86
2021/09/28 10:25:21;;;;;;;6.97;1.83;;;16.30;99.90;;;;;;5079750;28;20048;-86
2021/09/28 10:27:51;;;;;;;9.50;2.10;;;16.30;99.90;;;;;;5061603;28;20044;-87
2021/09/28 10:30:29;;;;;;;6.40;1.65;;;16.30;99.90;;;;;;5061379;28;20086;-87
2021/09/28 10:32:56;;;;;;;8.77;1.80;;;16.40;99.90;;;;;;5079012;28;20024;-87
2021/09/28 10:35:23;;;;;;;8.25;2.03;;;16.40;99.90;;;;;;5061196;28;20427;-85
2021/09/28 10:37:58;;;;;;;11.35;2.50;;;16.40;99.90;;;;;;5077973;28;20043;-87
2021/09/28 10:40:27;;;;;;;8.35;2.50;;;16.40;99.90;;;;;;5060872;28;20024;-85
2021/09/28 10:43:02;;;;;;;10.85;2.20;;;16.40;99.90;;;;;;5080864;28;20017;-85
2021/09/28 10:45:28;;;;;;;10.60;2.20;;;16.50;99.90;;;;;;5065134;28;20135;-85
2021/09/28 10:47:56;;;;;;;7.93;1.60;;;16.50;99.90;;;;;;5067855;28;20056;-87
2021/09/28 10:50:28;;;;;;;7.95;2.08;;;16.50;99.90;;;;;;5089138;28;20035;-87
2021/09/28 10:53:00;;;;;;;9.38;2.40;;;16.50;99.90;;;;;;5060869;28;20029;-86
2021/09/28 10:55:38;;;;;;;15.35;3.25;;;16.50;99.90;;;;;;5061098;28;20044;-86
2021/09/28 10:58:11;;;;;;;21.63;4.10;;;16.60;99.90;;;;;;5060704;28;20105;-86
2021/09/28 11:00:40;;;;;;;11.25;2.65;;;16.60;99.90;;;;;;5079430;28;20024;-87
2021/09/28 11:03:08;;;;;;;12.48;3.03;;;16.60;99.90;;;;;;5062748;28;20020;-86
2021/09/28 11:05:58;;;;;;;9.47;2.27;;;16.60;99.90;;;;;;5073805;28;20051;-86
2021/09/28 11:08:24;;;;;;;6.60;1.85;;;16.60;99.90;;;;;;5098694;28;20227;-86
2021/09/28 11:10:59;;;;;;;16.27;2.80;;;16.60;99.90;;;;;;5080014;28;20032;-86
2021/09/28 11:13:29;;;;;;;11.35;2.08;;;16.60;99.90;;;;;;5081429;28;20009;-86
2021/09/28 11:16:10;;;;;;;13.60;2.10;;;16.70;99.90;;;;;;5097938;28;20033;-84
2021/09/28 11:18:52;;;;;;;8.85;2.45;;;16.70;99.90;;;;;;5069272;28;20025;-87
2021/09/28 11:21:18;;;;;;;9.95;2.35;;;16.70;99.90;;;;;;5066888;28;20092;-84
2021/09/28 11:23:50;;;;;;;10.98;2.63;;;16.70;99.90;;;;;;5098892;28;20056;-85
2021/09/28 11:26:15;;;;;;;9.30;2.38;;;16.80;99.90;;;;;;5098504;28;20029;-84
2021/09/28 11:28:49;;;;;;;8.75;1.95;;;16.80;99.90;;;;;;5067173;28;20119;-86
2021/09/28 11:31:16;;;;;;;9.15;2.15;;;16.80;99.90;;;;;;5075515;28;20025;-86
2021/09/28 11:33:44;;;;;;;7.90;2.00;;;16.80;99.90;;;;;;5056581;28;20029;-86
2021/09/28 11:36:12;;;;;;;11.65;2.75;;;16.80;99.90;;;;;;5056841;28;20044;-85
2021/09/28 11:38:41;;;;;;;11.02;2.67;;;16.90;99.90;;;;;;5075645;28;20031;-85
2021/09/28 11:41:12;;;;;;;9.55;2.13;;;16.90;99.90;;;;;;5057300;28;20060;-86
2021/09/28 11:43:40;;;;;;;9.27;2.67;;;16.90;99.90;;;;;;5057632;28;20048;-86
2021/09/28 11:46:07;;;;;;;10.48;2.70;;;16.90;99.90;;;;;;5057403;28;20082;-86
2021/09/28 11:48:38;;;;;;;9.68;2.40;;;16.90;99.90;;;;;;5056669;28;20043;-86
2021/09/28 11:51:08;;;;;;;11.52;2.33;;;16.90;99.90;;;;;;5056492;28;20033;-86
2021/09/28 11:53:42;;;;;;;8.32;2.60;;;16.90;99.90;;;;;;5074462;28;20078;-86
2021/09/28 11:56:08;;;;;;;8.30;2.15;;;17.00;99.90;;;;;;5056403;28;20071;-86
2021/09/28 11:58:39;;;;;;;10.02;2.35;;;17.00;99.90;;;;;;5056898;28;20032;-85
2021/09/28 12:01:12;;;;;;;7.32;2.17;;;17.00;99.90;;;;;;5074144;28;20075;-86
2021/09/28 12:09:41;;;;;;;6.78;2.20;;;17.10;99.90;;;;;;5076309;28;20031;-86
2021/09/28 12:12:07;;;;;;;11.93;2.58;;;17.10;99.90;;;;;;5061529;28;20094;-86
2021/09/28 12:14:37;;;;;;;9.23;1.85;;;17.10;99.90;;;;;;5080491;28;20020;-87
2021/09/28 12:17:21;;;;;;;8.02;2.20;;;17.10;99.90;;;;;;5062543;28;20388;-86
2021/09/28 12:19:48;;;;;;;11.45;2.65;;;17.10;99.90;;;;;;5060600;28;20127;-87
2021/09/28 12:22:33;;;;;;;7.43;1.63;;;17.10;99.90;;;;;;5062139;28;20112;-87
2021/09/28 12:25:01;;;;;;;8.57;1.80;;;17.10;99.90;;;;;;5080323;28;20044;-85
2021/09/28 12:27:27;;;;;;;9.55;2.42;;;17.20;99.80;;;;;;5061408;28;20079;-87
2021/09/28 12:29:56;;;;;;;10.52;2.35;;;17.20;99.40;;;;;;5078979;28;20077;-86
2021/09/28 12:32:32;;;;;;;9.18;1.83;;;17.20;99.40;;;;;;5059125;28;20031;-85
2021/09/28 12:35:08;;;;;;;5.65;1.30;;;17.20;99.10;;;;;;5060041;28;20029;-84
2021/09/28 12:37:50;;;;;;;8.40;1.80;;;17.20;99.30;;;;;;5062232;28;20036;-84
2021/09/28 12:40:19;;;;;;;12.30;2.35;;;17.20;99.80;;;;;;5060572;28;20021;-86
2021/09/28 12:42:45;;;;;;;;;;;17.30;99.90;;;;;;5061308;28;20115;-87
2021/09/28 12:45:13;;;;;;;8.50;2.20;;;17.30;99.90;;;;;;5055800;28;19912;-86
2021/09/28 12:47:41;;;;;;;16.08;2.20;;;17.30;99.90;;;;;;5055180;28;20028;-86
2021/09/28 12:50:28;;;;;;;10.55;2.53;;;17.30;99.10;;;;;;5054729;28;20033;-85
2021/09/28 12:53:00;;;;;;;8.05;2.15;;;17.30;98.50;;;;;;5072904;28;20108;-86